sensor_id;sensor_type;location;lat;lon;timestamp;temperature;humidity
10046;DHT22;5063;50.878;4.742;2023-09-18T00:00:01;20.20;99.90
10046;DHT22;5063;50.878;4.742;2023-09-18T00:02:27;20.20;99.90
10046;DHT22;5063;50.878;4.742;2023-09-18T00:04:54;20.20;99.90
10046;DHT22;5063;50.878;4.742;2023-09-18T00:07:20;20.20;99.90
10046;DHT22;5063;50.878;4.742;2023-09-18T00:09:46;20.20;99.90
10046;DHT22;5063;50.878;4.742;2023-09-18T00:12:11;20.10;99.90
10046;DHT22;5063;50.878;4.742;2023-09-18T00:14:37;20.20;99.90
10046;DHT22;5063;50.878;4.742;2023-09-18T00:17:03;20.20;99.90
10046;DHT22;5063;50.878;4.742;2023-09-18T00:19:29;20.10;99.90
10046;DHT22;5063;50.878;4.742;2023-09-18T00:21:56;20.20;99.90
10046;DHT22;5063;50.878;4.742;2023-09-18T00:24:26;20.20;99.90
10046;DHT22;5063;50.878;4.742;2023-09-18T00:26:52;20.20;99.90
10046;DHT22;5063;50.878;4.742;2023-09-18T00:29:18;20.20;99.90
10046;DHT22;5063;50.878;4.742;2023-09-18T00:31:44;20.20;99.90
10046;DHT22;5063;50.878;4.742;2023-09-18T00:34:10;20.30;99.90
10046;DHT22;5063;50.878;4.742;2023-09-18T00:36:35;20.20;99.90
10046;DHT22;5063;50.878;4.742;2023-09-18T00:39:01;20.20;99.90
10046;DHT22;5063;50.878;4.742;2023-09-18T00:41:27;20.20;99.90
10046;DHT22;5063;50.878;4.742;2023-09-18T00:43:53;20.20;99.90
10046;DHT22;5063;50.878;4.742;2023-09-18T00:46:19;20.10;99.90
10046;DHT22;5063;50.878;4.742;2023-09-18T00:48:45;20.10;99.90
10046;DHT22;5063;50.878;4.742;2023-09-18T00:51:13;20.10;99.90
10046;DHT22;5063;50.878;4.742;2023-09-18T00:53:43;20.10;99.90
10046;DHT22;5063;50.878;4.742;2023-09-18T00:56:10;20.10;99.90
10046;DHT22;5063;50.878;4.742;2023-09-18T00:58:36;20.00;99.90
10046;DHT22;5063;50.878;4.742;2023-09-18T01:01:03;20.00;99.90
10046;DHT22;5063;50.878;4.742;2023-09-18T01:03:29;20.00;99.90
10046;DHT22;5063;50.878;4.742;2023-09-18T01:05:55;19.90;99.90
10046;DHT22;5063;50.878;4.742;2023-09-18T01:08:21;19.90;99.90
10046;DHT22;5063;50.878;4.742;2023-09-18T01:11:12;19.90;99.90
10046;DHT22;5063;50.878;4.742;2023-09-18T01:13:54;20.00;99.90
10046;DHT22;5063;50.878;4.742;2023-09-18T01:16:35;20.10;99.90
10046;DHT22;5063;50.878;4.742;2023-09-18T01:19:02;20.00;99.90
10046;DHT22;5063;50.878;4.742;2023-09-18T01:21:29;20.10;99.90
10046;DHT22;5063;50.878;4.742;2023-09-18T01:23:54;20.10;99.90
10046;DHT22;5063;50.878;4.742;2023-09-18T01:26:20;20.10;99.90
10046;DHT22;5063;50.878;4.742;2023-09-18T01:28:46;20.10;99.90
10046;DHT22;5063;50.878;4.742;2023-09-18T01:31:11;20.10;99.90
10046;DHT22;5063;50.878;4.742;2023-09-18T01:33:37;20.00;99.90
10046;DHT22;5063;50.878;4.742;2023-09-18T01:36:05;19.90;99.90
10046;DHT22;5063;50.878;4.742;2023-09-18T01:38:33;19.90;99.90
10046;DHT22;5063;50.878;4.742;2023-09-18T01:40:59;19.80;99.90
10046;DHT22;5063;50.878;4.742;2023-09-18T01:43:26;19.80;99.90
10046;DHT22;5063;50.878;4.742;2023-09-18T01:45:52;19.80;99.90
10046;DHT22;5063;50.878;4.742;2023-09-18T01:48:18;19.80;99.90
10046;DHT22;5063;50.878;4.742;2023-09-18T01:50:44;19.80;99.90
10046;DHT22;5063;50.878;4.742;2023-09-18T01:53:10;19.80;99.90
10046;DHT22;5063;50.878;4.742;2023-09-18T01:55:35;19.80;99.90
10046;DHT22;5063;50.878;4.742;2023-09-18T01:58:01;19.70;99.90
10046;DHT22;5063;50.878;4.742;2023-09-18T02:00:28;19.70;99.90
10046;DHT22;5063;50.878;4.742;2023-09-18T02:02:53;19.70;99.90
10046;DHT22;5063;50.878;4.742;2023-09-18T02:05:19;19.60;99.90
10046;DHT22;5063;50.878;4.742;2023-09-18T02:07:45;19.60;99.90
10046;DHT22;5063;50.878;4.742;2023-09-18T02:10:10;19.60;99.90
10046;DHT22;5063;50.878;4.742;2023-09-18T02:12:38;19.60;99.90
10046;DHT22;5063;50.878;4.742;2023-09-18T02:15:05;19.60;99.90
10046;DHT22;5063;50.878;4.742;2023-09-18T02:17:32;19.60;99.90
10046;DHT22;5063;50.878;4.742;2023-09-18T02:19:58;19.60;99.90
10046;DHT22;5063;50.878;4.742;2023-09-18T02:22:26;19.60;99.90
10046;DHT22;5063;50.878;4.742;2023-09-18T02:24:51;19.60;99.90
10046;DHT22;5063;50.878;4.742;2023-09-18T02:27:17;19.50;99.90
10046;DHT22;5063;50.878;4.742;2023-09-18T02:29:44;19.60;99.90
10046;DHT22;5063;50.878;4.742;2023-09-18T02:32:11;19.60;99.90
10046;DHT22;5063;50.878;4.742;2023-09-18T02:34:36;19.50;99.90
10046;DHT22;5063;50.878;4.742;2023-09-18T02:37:02;19.50;99.90
10046;DHT22;5063;50.878;4.742;2023-09-18T02:39:28;19.50;99.90
10046;DHT22;5063;50.878;4.742;2023-09-18T02:41:53;19.50;99.90
10046;DHT22;5063;50.878;4.742;2023-09-18T02:44:19;19.50;99.90
10046;DHT22;5063;50.878;4.742;2023-09-18T02:46:45;19.60;99.90
10046;DHT22;5063;50.878;4.742;2023-09-18T02:49:10;19.60;99.90
10046;DHT22;5063;50.878;4.742;2023-09-18T02:51:36;19.60;99.90
10046;DHT22;5063;50.878;4.742;2023-09-18T02:54:02;19.60;99.90
10046;DHT22;5063;50.878;4.742;2023-09-18T02:56:28;19.60;99.90
10046;DHT22;5063;50.878;4.742;2023-09-18T02:58:53;19.50;99.90
10046;DHT22;5063;50.878;4.742;2023-09-18T03:01:19;19.50;99.90
10046;DHT22;5063;50.878;4.742;2023-09-18T03:03:44;19.50;99.90
10046;DHT22;5063;50.878;4.742;2023-09-18T03:06:10;19.50;99.90
10046;DHT22;5063;50.878;4.742;2023-09-18T03:08:36;19.50;99.90
10046;DHT22;5063;50.878;4.742;2023-09-18T03:11:02;19.50;99.90
10046;DHT22;5063;50.878;4.742;2023-09-18T03:13:29;19.50;99.90
10046;DHT22;5063;50.878;4.742;2023-09-18T03:15:55;19.50;99.90
10046;DHT22;5063;50.878;4.742;2023-09-18T03:18:21;19.50;99.90
10046;DHT22;5063;50.878;4.742;2023-09-18T03:20:47;19.50;99.90
10046;DHT22;5063;50.878;4.742;2023-09-18T03:23:13;19.50;99.90
10046;DHT22;5063;50.878;4.742;2023-09-18T03:25:39;19.50;99.90
10046;DHT22;5063;50.878;4.742;2023-09-18T03:28:05;19.40;99.90
10046;DHT22;5063;50.878;4.742;2023-09-18T03:30:31;19.50;99.90
10046;DHT22;5063;50.878;4.742;2023-09-18T03:32:57;19.50;99.90
10046;DHT22;5063;50.878;4.742;2023-09-18T03:35:22;19.40;99.90
10046;DHT22;5063;50.878;4.742;2023-09-18T03:37:53;19.40;99.90
10046;DHT22;5063;50.878;4.742;2023-09-18T03:40:22;19.40;99.90
10046;DHT22;5063;50.878;4.742;2023-09-18T03:42:48;19.40;99.90
10046;DHT22;5063;50.878;4.742;2023-09-18T03:45:17;19.40;99.90
10046;DHT22;5063;50.878;4.742;2023-09-18T03:47:44;19.30;99.90
10046;DHT22;5063;50.878;4.742;2023-09-18T03:50:11;19.30;99.90
10046;DHT22;5063;50.878;4.742;2023-09-18T03:52:38;19.30;99.90
10046;DHT22;5063;50.878;4.742;2023-09-18T03:55:04;19.30;99.90
10046;DHT22;5063;50.878;4.742;2023-09-18T03:57:30;19.20;99.90
10046;DHT22;5063;50.878;4.742;2023-09-18T03:59:56;19.20;99.90
10046;DHT22;5063;50.878;4.742;2023-09-18T04:02:24;19.20;99.90
10046;DHT22;5063;50.878;4.742;2023-09-18T04:04:50;19.20;99.90
10046;DHT22;5063;50.878;4.742;2023-09-18T04:07:16;19.20;99.90
10046;DHT22;5063;50.878;4.742;2023-09-18T04:09:42;19.20;99.90
10046;DHT22;5063;50.878;4.742;2023-09-18T04:12:08;19.20;99.90
10046;DHT22;5063;50.878;4.742;2023-09-18T04:14:34;19.20;99.90
10046;DHT22;5063;50.878;4.742;2023-09-18T04:16:59;19.20;99.90
10046;DHT22;5063;50.878;4.742;2023-09-18T04:19:28;19.20;99.90
10046;DHT22;5063;50.878;4.742;2023-09-18T04:21:54;19.20;99.90
10046;DHT22;5063;50.878;4.742;2023-09-18T04:24:20;19.20;99.90
10046;DHT22;5063;50.878;4.742;2023-09-18T04:26:46;19.10;99.90
10046;DHT22;5063;50.878;4.742;2023-09-18T04:29:11;19.20;99.90
10046;DHT22;5063;50.878;4.742;2023-09-18T04:31:37;19.20;99.90
10046;DHT22;5063;50.878;4.742;2023-09-18T04:34:03;19.10;99.90
10046;DHT22;5063;50.878;4.742;2023-09-18T04:36:29;19.10;99.90
10046;DHT22;5063;50.878;4.742;2023-09-18T04:38:55;19.10;99.90
10046;DHT22;5063;50.878;4.742;2023-09-18T04:41:21;19.10;99.90
10046;DHT22;5063;50.878;4.742;2023-09-18T04:43:47;19.00;99.90
10046;DHT22;5063;50.878;4.742;2023-09-18T04:46:12;19.00;99.90
10046;DHT22;5063;50.878;4.742;2023-09-18T04:48:38;19.00;99.90
10046;DHT22;5063;50.878;4.742;2023-09-18T04:51:04;18.90;99.90
10046;DHT22;5063;50.878;4.742;2023-09-18T04:53:31;18.90;99.90
10046;DHT22;5063;50.878;4.742;2023-09-18T04:55:57;18.80;99.90
10046;DHT22;5063;50.878;4.742;2023-09-18T04:58:23;18.70;99.90
10046;DHT22;5063;50.878;4.742;2023-09-18T05:00:56;18.70;99.90
10046;DHT22;5063;50.878;4.742;2023-09-18T05:03:22;18.70;99.90
10046;DHT22;5063;50.878;4.742;2023-09-18T05:05:48;18.60;99.90
10046;DHT22;5063;50.878;4.742;2023-09-18T05:08:14;18.50;99.90
10046;DHT22;5063;50.878;4.742;2023-09-18T05:10:40;18.50;99.90
10046;DHT22;5063;50.878;4.742;2023-09-18T05:13:06;18.50;99.90
10046;DHT22;5063;50.878;4.742;2023-09-18T05:15:32;18.40;99.90
10046;DHT22;5063;50.878;4.742;2023-09-18T05:17:59;18.40;99.90
10046;DHT22;5063;50.878;4.742;2023-09-18T05:20:26;18.40;99.90
10046;DHT22;5063;50.878;4.742;2023-09-18T05:22:54;18.40;99.90
10046;DHT22;5063;50.878;4.742;2023-09-18T05:25:21;18.30;99.90
10046;DHT22;5063;50.878;4.742;2023-09-18T05:27:48;18.40;99.90
10046;DHT22;5063;50.878;4.742;2023-09-18T05:30:24;18.40;99.90
10046;DHT22;5063;50.878;4.742;2023-09-18T05:32:50;18.40;99.90
10046;DHT22;5063;50.878;4.742;2023-09-18T05:35:17;18.40;99.90
10046;DHT22;5063;50.878;4.742;2023-09-18T05:37:43;18.40;99.90
10046;DHT22;5063;50.878;4.742;2023-09-18T05:40:12;18.40;99.90
10046;DHT22;5063;50.878;4.742;2023-09-18T05:42:40;18.40;99.90
10046;DHT22;5063;50.878;4.742;2023-09-18T05:45:12;18.30;99.90
10046;DHT22;5063;50.878;4.742;2023-09-18T05:47:39;18.30;99.90
10046;DHT22;5063;50.878;4.742;2023-09-18T05:50:11;18.30;99.90
10046;DHT22;5063;50.878;4.742;2023-09-18T05:52:45;18.30;99.90
10046;DHT22;5063;50.878;4.742;2023-09-18T05:55:11;18.40;99.90
10046;DHT22;5063;50.878;4.742;2023-09-18T05:57:38;18.20;99.90
10046;DHT22;5063;50.878;4.742;2023-09-18T06:00:04;18.20;99.90
10046;DHT22;5063;50.878;4.742;2023-09-18T06:02:30;18.20;99.90
10046;DHT22;5063;50.878;4.742;2023-09-18T06:05:00;18.20;99.90
10046;DHT22;5063;50.878;4.742;2023-09-18T06:07:27;18.30;99.90
10046;DHT22;5063;50.878;4.742;2023-09-18T06:09:52;18.30;99.90
10046;DHT22;5063;50.878;4.742;2023-09-18T06:12:18;18.30;99.90
10046;DHT22;5063;50.878;4.742;2023-09-18T06:14:44;18.30;99.90
10046;DHT22;5063;50.878;4.742;2023-09-18T06:17:11;18.40;99.90
10046;DHT22;5063;50.878;4.742;2023-09-18T06:19:37;18.40;99.90
10046;DHT22;5063;50.878;4.742;2023-09-18T06:22:03;18.40;99.90
10046;DHT22;5063;50.878;4.742;2023-09-18T06:24:29;18.50;99.90
10046;DHT22;5063;50.878;4.742;2023-09-18T06:26:55;18.60;99.90
10046;DHT22;5063;50.878;4.742;2023-09-18T06:29:20;18.60;99.90
10046;DHT22;5063;50.878;4.742;2023-09-18T06:31:46;18.60;99.90
10046;DHT22;5063;50.878;4.742;2023-09-18T06:34:12;18.60;99.90
10046;DHT22;5063;50.878;4.742;2023-09-18T06:36:38;18.60;99.90
10046;DHT22;5063;50.878;4.742;2023-09-18T06:39:04;18.70;99.90
10046;DHT22;5063;50.878;4.742;2023-09-18T06:41:29;18.80;99.90
10046;DHT22;5063;50.878;4.742;2023-09-18T06:43:55;18.80;99.90
10046;DHT22;5063;50.878;4.742;2023-09-18T06:46:22;18.80;99.90
10046;DHT22;5063;50.878;4.742;2023-09-18T06:48:48;18.80;99.90
10046;DHT22;5063;50.878;4.742;2023-09-18T06:51:16;18.80;99.90
10046;DHT22;5063;50.878;4.742;2023-09-18T06:53:43;18.90;99.90
10046;DHT22;5063;50.878;4.742;2023-09-18T06:56:09;18.90;99.90
10046;DHT22;5063;50.878;4.742;2023-09-18T06:58:35;19.10;99.90
10046;DHT22;5063;50.878;4.742;2023-09-18T07:01:01;19.40;99.90
10046;DHT22;5063;50.878;4.742;2023-09-18T07:03:27;19.20;99.90
10046;DHT22;5063;50.878;4.742;2023-09-18T07:05:53;19.30;99.90
10046;DHT22;5063;50.878;4.742;2023-09-18T07:08:18;19.30;99.90
10046;DHT22;5063;50.878;4.742;2023-09-18T07:10:45;19.30;99.90
10046;DHT22;5063;50.878;4.742;2023-09-18T07:13:11;19.30;99.90
10046;DHT22;5063;50.878;4.742;2023-09-18T07:15:39;19.40;99.90
10046;DHT22;5063;50.878;4.742;2023-09-18T07:18:05;19.40;99.90
10046;DHT22;5063;50.878;4.742;2023-09-18T07:20:30;19.40;99.90
10046;DHT22;5063;50.878;4.742;2023-09-18T07:22:56;19.40;99.90
10046;DHT22;5063;50.878;4.742;2023-09-18T07:25:22;19.40;99.90
10046;DHT22;5063;50.878;4.742;2023-09-18T07:27:47;19.50;99.90
10046;DHT22;5063;50.878;4.742;2023-09-18T07:30:14;19.60;99.90
10046;DHT22;5063;50.878;4.742;2023-09-18T07:32:45;19.70;99.90
10046;DHT22;5063;50.878;4.742;2023-09-18T07:35:11;19.80;99.90
10046;DHT22;5063;50.878;4.742;2023-09-18T07:37:38;19.70;99.90
10046;DHT22;5063;50.878;4.742;2023-09-18T07:40:06;19.80;99.90
10046;DHT22;5063;50.878;4.742;2023-09-18T07:42:32;20.00;99.90
10046;DHT22;5063;50.878;4.742;2023-09-18T07:44:57;20.30;99.90
10046;DHT22;5063;50.878;4.742;2023-09-18T07:47:23;21.30;99.90
10046;DHT22;5063;50.878;4.742;2023-09-18T07:49:49;22.80;99.90
10046;DHT22;5063;50.878;4.742;2023-09-18T07:52:16;24.10;99.90
10046;DHT22;5063;50.878;4.742;2023-09-18T07:54:43;24.90;99.90
10046;DHT22;5063;50.878;4.742;2023-09-18T07:57:09;25.40;99.90
10046;DHT22;5063;50.878;4.742;2023-09-18T07:59:37;26.30;99.90
10046;DHT22;5063;50.878;4.742;2023-09-18T08:02:04;26.30;99.90
10046;DHT22;5063;50.878;4.742;2023-09-18T08:04:34;26.60;99.90
10046;DHT22;5063;50.878;4.742;2023-09-18T08:06:59;26.50;99.90
10046;DHT22;5063;50.878;4.742;2023-09-18T08:09:25;26.70;99.90
10046;DHT22;5063;50.878;4.742;2023-09-18T08:11:55;26.30;99.90
10046;DHT22;5063;50.878;4.742;2023-09-18T08:14:24;26.80;99.90
10046;DHT22;5063;50.878;4.742;2023-09-18T08:17:00;27.00;99.90
10046;DHT22;5063;50.878;4.742;2023-09-18T08:19:26;27.70;99.90
10046;DHT22;5063;50.878;4.742;2023-09-18T08:21:55;27.80;99.90
10046;DHT22;5063;50.878;4.742;2023-09-18T08:24:22;28.10;99.90
10046;DHT22;5063;50.878;4.742;2023-09-18T08:26:49;27.60;99.90
10046;DHT22;5063;50.878;4.742;2023-09-18T08:29:15;27.20;99.90
10046;DHT22;5063;50.878;4.742;2023-09-18T08:31:41;26.70;99.90
10046;DHT22;5063;50.878;4.742;2023-09-18T08:34:06;26.70;99.90
10046;DHT22;5063;50.878;4.742;2023-09-18T08:36:32;27.10;99.90
10046;DHT22;5063;50.878;4.742;2023-09-18T08:38:58;26.90;99.90
10046;DHT22;5063;50.878;4.742;2023-09-18T08:41:24;27.30;99.90
10046;DHT22;5063;50.878;4.742;2023-09-18T08:43:58;26.40;99.90
10046;DHT22;5063;50.878;4.742;2023-09-18T08:46:24;25.90;99.90
10046;DHT22;5063;50.878;4.742;2023-09-18T08:48:50;25.30;99.90
10046;DHT22;5063;50.878;4.742;2023-09-18T08:51:18;25.20;99.90
10046;DHT22;5063;50.878;4.742;2023-09-18T08:53:44;24.80;99.90
10046;DHT22;5063;50.878;4.742;2023-09-18T08:56:12;24.30;99.90
10046;DHT22;5063;50.878;4.742;2023-09-18T08:58:40;24.10;99.90
10046;DHT22;5063;50.878;4.742;2023-09-18T09:01:09;23.90;99.90
10046;DHT22;5063;50.878;4.742;2023-09-18T09:03:42;23.80;99.90
10046;DHT22;5063;50.878;4.742;2023-09-18T09:06:12;23.70;99.90
10046;DHT22;5063;50.878;4.742;2023-09-18T09:08:38;23.40;99.90
10046;DHT22;5063;50.878;4.742;2023-09-18T09:11:04;23.10;99.90
10046;DHT22;5063;50.878;4.742;2023-09-18T09:13:30;22.70;99.90
10046;DHT22;5063;50.878;4.742;2023-09-18T09:15:58;22.50;99.90
10046;DHT22;5063;50.878;4.742;2023-09-18T09:18:25;22.50;99.90
10046;DHT22;5063;50.878;4.742;2023-09-18T09:21:02;22.40;99.90
10046;DHT22;5063;50.878;4.742;2023-09-18T09:23:51;22.70;99.90
10046;DHT22;5063;50.878;4.742;2023-09-18T09:26:19;23.10;99.90
10046;DHT22;5063;50.878;4.742;2023-09-18T09:28:46;23.30;99.90
10046;DHT22;5063;50.878;4.742;2023-09-18T09:31:23;23.30;99.90
10046;DHT22;5063;50.878;4.742;2023-09-18T09:33:52;22.90;99.90
10046;DHT22;5063;50.878;4.742;2023-09-18T09:36:20;22.90;99.90
10046;DHT22;5063;50.878;4.742;2023-09-18T09:38:46;23.00;99.90
10046;DHT22;5063;50.878;4.742;2023-09-18T09:41:15;23.20;99.90
10046;DHT22;5063;50.878;4.742;2023-09-18T09:43:43;23.40;99.90
10046;DHT22;5063;50.878;4.742;2023-09-18T09:46:17;23.60;99.90
10046;DHT22;5063;50.878;4.742;2023-09-18T09:48:59;23.60;99.90
10046;DHT22;5063;50.878;4.742;2023-09-18T09:51:27;23.60;99.90
10046;DHT22;5063;50.878;4.742;2023-09-18T09:53:53;23.70;99.90
10046;DHT22;5063;50.878;4.742;2023-09-18T09:56:19;23.40;99.90
10046;DHT22;5063;50.878;4.742;2023-09-18T09:59:04;23.50;99.90
10046;DHT22;5063;50.878;4.742;2023-09-18T10:01:34;23.60;99.90
10046;DHT22;5063;50.878;4.742;2023-09-18T10:04:24;23.70;99.90
10046;DHT22;5063;50.878;4.742;2023-09-18T10:06:56;23.60;99.90
10046;DHT22;5063;50.878;4.742;2023-09-18T10:09:23;23.40;99.90
10046;DHT22;5063;50.878;4.742;2023-09-18T10:11:52;23.30;99.90
10046;DHT22;5063;50.878;4.742;2023-09-18T10:14:21;23.30;99.90
10046;DHT22;5063;50.878;4.742;2023-09-18T10:16:54;23.20;99.90
10046;DHT22;5063;50.878;4.742;2023-09-18T10:24:58;23.20;99.90
10046;DHT22;5063;50.878;4.742;2023-09-18T10:27:26;23.10;99.90
10046;DHT22;5063;50.878;4.742;2023-09-18T10:29:54;23.10;99.90
10046;DHT22;5063;50.878;4.742;2023-09-18T10:32:21;23.30;99.90
10046;DHT22;5063;50.878;4.742;2023-09-18T10:34:48;23.50;99.90
10046;DHT22;5063;50.878;4.742;2023-09-18T10:37:15;23.80;99.90
10046;DHT22;5063;50.878;4.742;2023-09-18T10:39:41;23.60;99.90
10046;DHT22;5063;50.878;4.742;2023-09-18T10:42:10;23.80;99.90
10046;DHT22;5063;50.878;4.742;2023-09-18T10:44:37;23.80;99.90
10046;DHT22;5063;50.878;4.742;2023-09-18T10:47:08;23.80;99.90
10046;DHT22;5063;50.878;4.742;2023-09-18T10:49:35;23.40;99.90
10046;DHT22;5063;50.878;4.742;2023-09-18T10:52:01;23.30;99.90
10046;DHT22;5063;50.878;4.742;2023-09-18T10:54:28;23.10;99.90
10046;DHT22;5063;50.878;4.742;2023-09-18T10:56:56;23.10;99.90
10046;DHT22;5063;50.878;4.742;2023-09-18T10:59:23;23.10;99.90
10046;DHT22;5063;50.878;4.742;2023-09-18T11:01:49;23.20;99.90
10046;DHT22;5063;50.878;4.742;2023-09-18T11:04:19;23.20;99.90
10046;DHT22;5063;50.878;4.742;2023-09-18T11:09:23;23.10;99.90
10046;DHT22;5063;50.878;4.742;2023-09-18T11:17:30;23.20;99.90
10046;DHT22;5063;50.878;4.742;2023-09-18T11:20:28;23.20;99.90
10046;DHT22;5063;50.878;4.742;2023-09-18T11:25:39;23.30;99.90
10046;DHT22;5063;50.878;4.742;2023-09-18T11:28:25;23.30;99.90
10046;DHT22;5063;50.878;4.742;2023-09-18T11:30:53;23.40;99.90
10046;DHT22;5063;50.878;4.742;2023-09-18T11:36:11;23.40;99.90
10046;DHT22;5063;50.878;4.742;2023-09-18T11:38:57;23.50;99.90
10046;DHT22;5063;50.878;4.742;2023-09-18T11:41:29;23.50;99.90
10046;DHT22;5063;50.878;4.742;2023-09-18T11:46:40;23.30;99.90
10046;DHT22;5063;50.878;4.742;2023-09-18T11:49:10;23.30;99.90
10046;DHT22;5063;50.878;4.742;2023-09-18T11:51:37;23.50;99.90
10046;DHT22;5063;50.878;4.742;2023-09-18T11:54:05;23.80;99.90
10046;DHT22;5063;50.878;4.742;2023-09-18T11:56:35;23.70;99.90
10046;DHT22;5063;50.878;4.742;2023-09-18T11:59:00;23.80;99.90
10046;DHT22;5063;50.878;4.742;2023-09-18T12:01:30;24.00;99.90
10046;DHT22;5063;50.878;4.742;2023-09-18T12:04:03;24.20;99.90
10046;DHT22;5063;50.878;4.742;2023-09-18T12:06:40;24.20;99.90
10046;DHT22;5063;50.878;4.742;2023-09-18T12:09:07;24.20;99.90
10046;DHT22;5063;50.878;4.742;2023-09-18T12:11:33;24.20;99.90
10046;DHT22;5063;50.878;4.742;2023-09-18T12:14:07;24.10;99.90
10046;DHT22;5063;50.878;4.742;2023-09-18T12:16:40;23.80;99.90
10046;DHT22;5063;50.878;4.742;2023-09-18T12:19:06;23.70;99.90
10046;DHT22;5063;50.878;4.742;2023-09-18T12:21:40;23.60;99.90
10046;DHT22;5063;50.878;4.742;2023-09-18T12:24:06;23.60;99.90
10046;DHT22;5063;50.878;4.742;2023-09-18T12:26:32;23.60;99.90
10046;DHT22;5063;50.878;4.742;2023-09-18T12:28:59;23.70;99.90
10046;DHT22;5063;50.878;4.742;2023-09-18T12:31:26;23.60;99.90
10046;DHT22;5063;50.878;4.742;2023-09-18T12:33:51;23.60;99.90
10046;DHT22;5063;50.878;4.742;2023-09-18T12:36:20;23.60;99.90
10046;DHT22;5063;50.878;4.742;2023-09-18T12:38:56;23.60;99.90
10046;DHT22;5063;50.878;4.742;2023-09-18T12:41:25;23.50;99.90
10046;DHT22;5063;50.878;4.742;2023-09-18T12:43:51;23.60;99.90
10046;DHT22;5063;50.878;4.742;2023-09-18T12:46:17;23.70;99.90
10046;DHT22;5063;50.878;4.742;2023-09-18T12:48:44;23.80;99.90
10046;DHT22;5063;50.878;4.742;2023-09-18T12:51:13;23.80;99.90
10046;DHT22;5063;50.878;4.742;2023-09-18T12:53:40;23.80;99.90
10046;DHT22;5063;50.878;4.742;2023-09-18T12:56:08;23.80;99.90
10046;DHT22;5063;50.878;4.742;2023-09-18T12:58:34;23.80;99.90
10046;DHT22;5063;50.878;4.742;2023-09-18T13:01:04;23.70;99.90
10046;DHT22;5063;50.878;4.742;2023-09-18T13:03:46;23.80;99.90
10046;DHT22;5063;50.878;4.742;2023-09-18T13:06:16;23.80;99.90
10046;DHT22;5063;50.878;4.742;2023-09-18T13:08:45;23.90;99.90
10046;DHT22;5063;50.878;4.742;2023-09-18T13:11:11;24.20;99.90
10046;DHT22;5063;50.878;4.742;2023-09-18T13:13:40;24.40;99.90
10046;DHT22;5063;50.878;4.742;2023-09-18T13:16:07;24.50;99.90
10046;DHT22;5063;50.878;4.742;2023-09-18T13:18:37;24.50;99.90
10046;DHT22;5063;50.878;4.742;2023-09-18T13:21:12;24.60;99.90
10046;DHT22;5063;50.878;4.742;2023-09-18T13:23:39;24.60;99.90
10046;DHT22;5063;50.878;4.742;2023-09-18T13:26:06;24.60;99.90
10046;DHT22;5063;50.878;4.742;2023-09-18T13:28:34;24.60;99.90
10046;DHT22;5063;50.878;4.742;2023-09-18T13:31:05;24.60;99.90
10046;DHT22;5063;50.878;4.742;2023-09-18T13:33:32;24.60;99.90
10046;DHT22;5063;50.878;4.742;2023-09-18T13:35:59;24.40;99.90
10046;DHT22;5063;50.878;4.742;2023-09-18T13:38:25;24.50;99.90
10046;DHT22;5063;50.878;4.742;2023-09-18T13:40:53;24.60;99.90
10046;DHT22;5063;50.878;4.742;2023-09-18T13:43:20;24.60;99.90
10046;DHT22;5063;50.878;4.742;2023-09-18T13:45:48;24.60;99.90
10046;DHT22;5063;50.878;4.742;2023-09-18T13:48:17;24.70;99.90
10046;DHT22;5063;50.878;4.742;2023-09-18T13:50:47;24.80;99.90
10046;DHT22;5063;50.878;4.742;2023-09-18T13:53:13;24.90;99.90
10046;DHT22;5063;50.878;4.742;2023-09-18T13:55:39;24.80;99.90
10046;DHT22;5063;50.878;4.742;2023-09-18T13:58:05;24.70;99.90
10046;DHT22;5063;50.878;4.742;2023-09-18T14:00:31;24.70;99.90
10046;DHT22;5063;50.878;4.742;2023-09-18T14:02:58;24.60;99.90
10046;DHT22;5063;50.878;4.742;2023-09-18T14:05:23;24.60;99.90
10046;DHT22;5063;50.878;4.742;2023-09-18T14:07:51;24.60;99.90
10046;DHT22;5063;50.878;4.742;2023-09-18T14:10:17;24.70;99.90
10046;DHT22;5063;50.878;4.742;2023-09-18T14:12:44;24.90;99.90
10046;DHT22;5063;50.878;4.742;2023-09-18T14:15:10;25.10;99.90
10046;DHT22;5063;50.878;4.742;2023-09-18T14:17:36;24.80;99.90
10046;DHT22;5063;50.878;4.742;2023-09-18T14:20:03;25.00;99.90
10046;DHT22;5063;50.878;4.742;2023-09-18T14:22:32;25.20;99.90
10046;DHT22;5063;50.878;4.742;2023-09-18T14:24:58;25.10;99.90
10046;DHT22;5063;50.878;4.742;2023-09-18T14:27:24;25.00;99.90
10046;DHT22;5063;50.878;4.742;2023-09-18T14:29:50;24.90;99.90
10046;DHT22;5063;50.878;4.742;2023-09-18T14:32:15;24.90;99.90
10046;DHT22;5063;50.878;4.742;2023-09-18T14:34:41;24.70;99.90
10046;DHT22;5063;50.878;4.742;2023-09-18T14:37:07;24.90;99.90
10046;DHT22;5063;50.878;4.742;2023-09-18T14:39:34;24.90;99.90
10046;DHT22;5063;50.878;4.742;2023-09-18T14:42:01;25.00;99.90
10046;DHT22;5063;50.878;4.742;2023-09-18T14:44:26;24.70;99.90
10046;DHT22;5063;50.878;4.742;2023-09-18T14:46:58;24.60;99.90
10046;DHT22;5063;50.878;4.742;2023-09-18T14:49:25;24.50;99.90
10046;DHT22;5063;50.878;4.742;2023-09-18T14:51:53;24.40;99.90
10046;DHT22;5063;50.878;4.742;2023-09-18T14:54:20;24.30;99.90
10046;DHT22;5063;50.878;4.742;2023-09-18T14:56:45;24.10;99.90
10046;DHT22;5063;50.878;4.742;2023-09-18T14:59:12;23.80;99.90
10046;DHT22;5063;50.878;4.742;2023-09-18T15:01:38;23.60;99.90
10046;DHT22;5063;50.878;4.742;2023-09-18T15:04:04;23.70;99.90
10046;DHT22;5063;50.878;4.742;2023-09-18T15:06:30;23.60;99.90
10046;DHT22;5063;50.878;4.742;2023-09-18T15:08:56;23.60;99.90
10046;DHT22;5063;50.878;4.742;2023-09-18T15:11:22;23.30;99.90
10046;DHT22;5063;50.878;4.742;2023-09-18T15:13:49;23.00;99.90
10046;DHT22;5063;50.878;4.742;2023-09-18T15:16:14;22.70;99.90
10046;DHT22;5063;50.878;4.742;2023-09-18T15:18:40;22.50;99.90
10046;DHT22;5063;50.878;4.742;2023-09-18T15:21:06;21.90;99.90
10046;DHT22;5063;50.878;4.742;2023-09-18T15:23:32;21.30;99.90
10046;DHT22;5063;50.878;4.742;2023-09-18T15:25:57;20.90;99.90
10046;DHT22;5063;50.878;4.742;2023-09-18T15:28:23;20.50;99.90
10046;DHT22;5063;50.878;4.742;2023-09-18T15:30:53;20.30;99.90
10046;DHT22;5063;50.878;4.742;2023-09-18T15:33:19;20.20;99.90
10046;DHT22;5063;50.878;4.742;2023-09-18T15:35:48;20.10;99.90
10046;DHT22;5063;50.878;4.742;2023-09-18T15:38:14;20.10;99.90
10046;DHT22;5063;50.878;4.742;2023-09-18T15:40:40;20.00;99.90
10046;DHT22;5063;50.878;4.742;2023-09-18T15:43:05;20.10;99.90
10046;DHT22;5063;50.878;4.742;2023-09-18T15:45:31;20.00;99.90
10046;DHT22;5063;50.878;4.742;2023-09-18T15:48:01;20.00;99.90
10046;DHT22;5063;50.878;4.742;2023-09-18T15:50:26;20.00;99.90
10046;DHT22;5063;50.878;4.742;2023-09-18T15:52:52;20.00;99.90
10046;DHT22;5063;50.878;4.742;2023-09-18T15:55:18;20.10;99.90
10046;DHT22;5063;50.878;4.742;2023-09-18T15:57:43;20.10;99.90
10046;DHT22;5063;50.878;4.742;2023-09-18T16:00:10;20.10;99.90
10046;DHT22;5063;50.878;4.742;2023-09-18T16:02:37;20.00;99.90
10046;DHT22;5063;50.878;4.742;2023-09-18T16:05:04;20.10;99.90
10046;DHT22;5063;50.878;4.742;2023-09-18T16:07:31;20.00;99.90